• Join FlightAware (Why Join?)
  • Login
  • US Flag 
01:58AM EDT


 

Airport Tracker/Info


-or-


 

Live Flight TrackerFlight Track Log ✈ FSR411 ✈ 16-Jul-2013 ✈ KCMI - KHYR

Flight Track Log - Related Links

Times and Time Zones

All times are in EDT time to prevent confusion due to time zone crossing. See the FSR411 flight status page for this flight to view local times or setup timezone preferences in your user account.

Time Position Orientation Groundspeed Altitude Reporting Facility
EDT Latitude Longitude Course Direction KTS MPH feet Rate Location/Type
05:48PM 40.0639 -88.3481 339° North 263 303 38,000  Level Chicago Center
05:49PM 40.1242 -88.3747 341° North 266 306 6,900 -13,260 Descending Chicago Center
05:50PM 40.2150 -88.4189 340° North 284 327 10,700 2,760 Climbing Chicago Center
05:51PM 40.3050 -88.4611 340° North 340 391 12,700 2,280 Climbing Chicago Center
05:52PM 40.4061 -88.5078 341° North 386 444 15,500 2,640 Climbing Chicago Center
05:53PM 40.6094 -88.5464 339° North  Level FlightAware Approximate
05:53PM 40.5122 -88.5589 340° North 397 457 18,200  Level Chicago Center
05:54PM 40.6211 -88.6106 340° North 414 476 21,100 2,340 Climbing Chicago Center
05:55PM 40.7342 -88.6639 340° North 428 493 23,100 2,400 Climbing Chicago Center
05:56PM 40.8725 -88.7300 340° North 442 509 26,100 2,220 Climbing Chicago Center
05:57PM 40.9908 -88.7875 340° North 451 519 27,800 1,500 Climbing Chicago Center
05:58PM 41.1094 -88.8433 340° North 455 524 29,300 1,440 Climbing Chicago Center
05:59PM 41.2350 -88.9053 340° North 475 547 30,800 1,440 Climbing Chicago Center
06:00PM 41.3564 -88.9642 340° North 468 539 32,300 1,500 Climbing Chicago Center
06:01PM 41.5050 -89.0381 340° North 475 547 34,000 1,500 Climbing Chicago Center
06:03PM 41.6283 -89.0969 340° North 475 547 35,500 1,440 Climbing Chicago Center
06:04PM 41.7494 -89.1575 340° North 469 540 37,000 1,140 Climbing Chicago Center
06:05PM 41.8703 -89.2158 340° North 467 537 37,900 480 Climbing Chicago Center
06:06PM 41.9914 -89.2786 339° North 470 541 38,000  Climbing Chicago Center
06:07PM 42.1375 -89.3536 339° North 475 547 38,000  Level Chicago Center
06:08PM 42.2633 -89.4167 340° North 481 554 38,000  Level Chicago Center
06:09PM 42.3853 -89.4789 339° North 472 543 38,000  Level Chicago Center
06:10PM 42.5108 -89.5419 340° North 476 548 38,000  Level Chicago Center
06:11PM 42.6342 -89.6047 339° North 474 545 38,000  Level Chicago Center
06:12PM 42.7600 -89.6683 340° North 477 549 38,000  Level Chicago Center
06:13PM 42.9039 -89.7425 339° North 472 543 38,000  Level Chicago Center
06:14PM 43.0267 -89.8067 339° North 470 541 38,000  Level Chicago Center
06:15PM 43.1508 -89.8706 339° North 473 544 38,000 -240 Level Chicago Center
06:16PM 43.2717 -89.9350 339° North 466 536 37,600 -960 Descending Chicago Center
06:17PM 43.3956 -89.9986 340° North 470 541 36,100 -1,560 Descending Chicago Center
06:18PM 43.5189 -90.0625 339° North 471 542 34,400 -1,800 Descending Chicago Center
06:19PM 43.6633 -90.1392 339° North 475 547 32,400 -1,800 Descending Chicago Center
06:20PM 43.7286 -90.1728 340° North 481 554 31,500 -1,620 Descending Minneapolis Center
06:21PM 43.8575 -90.2408 339° North 493 567 29,800 -1,680 Descending Minneapolis Center
06:22PM 43.9858 -90.3097 339° North 495 570 28,100 -900 Descending Minneapolis Center
06:23PM 44.1328 -90.3889 339° North 486 559 28,000 -60 Descending Minneapolis Center
06:24PM 44.2606 -90.4578 339° North 490 564 28,000 -420 Level Minneapolis Center
06:25PM 44.3872 -90.5264 339° North 487 560 27,200 -1,020 Descending Minneapolis Center
06:26PM 44.5122 -90.5925 339° North 480 552 25,700 -1,380 Descending Minneapolis Center
06:27PM 44.6683 -90.6817 338° Northwest 466 536 24,200 -840 Descending Minneapolis Center
06:28PM 44.7917 -90.7469 339° North 472 543 24,000 -480 Descending Minneapolis Center
06:29PM 44.9183 -90.8181 338° Northwest 458 527 23,300 -780 Descending Minneapolis Center
06:30PM 45.0331 -90.8819 339° North 444 511 22,400 -1,320 Descending Minneapolis Center
06:31PM 45.1453 -90.9439 339° North 438 504 20,600 -1,800 Descending Minneapolis Center
06:32PM 45.2550 -91.0058 338° Northwest 431 496 18,800 -1,980 Descending Minneapolis Center
06:33PM 45.3575 -91.0631 339° North 412 474 16,600 -2,280 Descending Minneapolis Center
06:34PM 45.4550 -91.1183 338° Northwest 393 452 14,100 -2,700 Descending Minneapolis Center
06:35PM 45.5642 -91.1814 338° Northwest 369 425 11,100 -2,280 Descending Minneapolis Center
06:36PM 45.6461 -91.2272 339° North 340 391 9,500 -1,800 Descending Minneapolis Center
06:37PM 45.7192 -91.2697 338° Northwest 307 353 7,500 -1,980 Descending Minneapolis Center
06:38PM 45.7886 -91.3089 339° North 284 327 5,500 -1,380 Descending Minneapolis Center
06:40PM 45.8714 -91.3581 338° Northwest 280 322 4,700 -780 Descending Minneapolis Center
06:42PM 46.0167 -91.4333 341° North  Level FlightAware Approximate
06:49PM 46.0253 -91.4443 341° North  Level Estimated
06:50PM 46.0253 -91.4443 341° North  Level Estimated